sensor_id;sensor_type;location;lat;lon;timestamp;pressure;altitude;pressure_sealevel;temperature;humidity
48614;BME280;34408;51.426;5.444;2023-02-03T00:00:06;102488.38;;;9.43;71.76
48614;BME280;34408;51.426;5.444;2023-02-03T00:02:34;102487.53;;;9.42;71.49
48614;BME280;34408;51.426;5.444;2023-02-03T00:05:01;102478.66;;;9.42;71.81
48614;BME280;34408;51.426;5.444;2023-02-03T00:07:29;102484.84;;;9.42;71.22
48614;BME280;34408;51.426;5.444;2023-02-03T00:09:58;102476.81;;;9.42;71.30
48614;BME280;34408;51.426;5.444;2023-02-03T00:12:26;102476.81;;;9.42;71.61
48614;BME280;34408;51.426;5.444;2023-02-03T00:14:54;102484.03;;;9.42;71.83
48614;BME280;34408;51.426;5.444;2023-02-03T00:17:22;102494.94;;;9.40;71.75
48614;BME280;34408;51.426;5.444;2023-02-03T00:19:50;102476.97;;;9.41;72.15
48614;BME280;34408;51.426;5.444;2023-02-03T00:22:17;102479.66;;;9.41;72.12
48614;BME280;34408;51.426;5.444;2023-02-03T00:24:45;102487.53;;;9.42;71.45
48614;BME280;34408;51.426;5.444;2023-02-03T00:27:14;102484.03;;;9.42;71.66
48614;BME280;34408;51.426;5.444;2023-02-03T00:29:42;102500.97;;;9.42;72.07
48614;BME280;34408;51.426;5.444;2023-02-03T00:32:10;102515.22;;;9.43;71.80
48614;BME280;34408;51.426;5.444;2023-02-03T00:34:38;102510.69;;;9.43;71.46
48614;BME280;34408;51.426;5.444;2023-02-03T00:37:05;102497.28;;;9.43;71.71
48614;BME280;34408;51.426;5.444;2023-02-03T00:39:35;102500.78;;;9.44;71.55
48614;BME280;34408;51.426;5.444;2023-02-03T00:44:39;102515.22;;;9.43;72.00
48614;BME280;34408;51.426;5.444;2023-02-03T00:47:07;102506.50;;;9.41;72.25
48614;BME280;34408;51.426;5.444;2023-02-03T00:49:35;102505.31;;;9.43;71.54
48614;BME280;34408;51.426;5.444;2023-02-03T00:52:03;102508.19;;;9.42;72.05
48614;BME280;34408;51.426;5.444;2023-02-03T00:54:31;102499.13;;;9.43;71.85
48614;BME280;34408;51.426;5.444;2023-02-03T00:56:59;102500.81;;;9.36;71.64
48614;BME280;34408;51.426;5.444;2023-02-03T00:59:27;102499.13;;;9.43;71.54
48614;BME280;34408;51.426;5.444;2023-02-03T01:01:56;102511.53;;;9.44;71.91
48614;BME280;34408;51.426;5.444;2023-02-03T01:04:24;102515.22;;;9.43;71.51
48614;BME280;34408;51.426;5.444;2023-02-03T01:06:51;102522.44;;;9.42;71.97
48614;BME280;34408;51.426;5.444;2023-02-03T01:09:21;102526.28;;;9.40;71.40
48614;BME280;34408;51.426;5.444;2023-02-03T01:11:49;102531.31;;;9.43;71.62
48614;BME280;34408;51.426;5.444;2023-02-03T01:14:17;102534.16;;;9.41;71.80
48614;BME280;34408;51.426;5.444;2023-02-03T01:16:45;102528.97;;;9.40;72.14
48614;BME280;34408;51.426;5.444;2023-02-03T01:19:14;102531.84;;;9.38;71.56
48614;BME280;34408;51.426;5.444;2023-02-03T01:21:42;102531.66;;;9.40;71.09
48614;BME280;34408;51.426;5.444;2023-02-03T01:24:10;102528.31;;;9.38;71.10
48614;BME280;34408;51.426;5.444;2023-02-03T01:26:38;102541.38;;;9.41;71.29
48614;BME280;34408;51.426;5.444;2023-02-03T01:29:06;102524.78;;;9.37;70.96
48614;BME280;34408;51.426;5.444;2023-02-03T01:31:35;102530.66;;;9.41;71.66
48614;BME280;34408;51.426;5.444;2023-02-03T01:34:06;102530.66;;;9.41;71.11
48614;BME280;34408;51.426;5.444;2023-02-03T01:36:35;102522.78;;;9.39;71.18
48614;BME280;34408;51.426;5.444;2023-02-03T01:39:04;102528.13;;;9.39;71.36
48614;BME280;34408;51.426;5.444;2023-02-03T01:41:34;102519.25;;;9.39;71.19
48614;BME280;34408;51.426;5.444;2023-02-03T01:44:34;102526.47;;;9.38;71.52
48614;BME280;34408;51.426;5.444;2023-02-03T01:47:02;102528.13;;;9.39;70.84
48614;BME280;34408;51.426;5.444;2023-02-03T01:49:34;102524.63;;;9.39;70.97
48614;BME280;34408;51.426;5.444;2023-02-03T01:52:04;102520.09;;;9.39;71.44
48614;BME280;34408;51.426;5.444;2023-02-03T01:54:36;102510.38;;;9.38;71.24
48614;BME280;34408;51.426;5.444;2023-02-03T01:57:11;102507.69;;;9.38;70.95
48614;BME280;34408;51.426;5.444;2023-02-03T01:59:40;102506.84;;;9.38;71.31
48614;BME280;34408;51.426;5.444;2023-02-03T02:02:09;102505.16;;;9.37;71.27
48614;BME280;34408;51.426;5.444;2023-02-03T02:04:45;102511.38;;;9.37;71.08
48614;BME280;34408;51.426;5.444;2023-02-03T02:07:16;102495.28;;;9.37;71.37
48614;BME280;34408;51.426;5.444;2023-02-03T02:09:45;102485.38;;;9.38;71.32
48614;BME280;34408;51.426;5.444;2023-02-03T02:12:13;102474.81;;;9.36;70.57
48614;BME280;34408;51.426;5.444;2023-02-03T02:14:42;102466.59;;;9.38;71.29
48614;BME280;34408;51.426;5.444;2023-02-03T02:17:28;102456.88;;;9.37;70.52
48614;BME280;34408;51.426;5.444;2023-02-03T02:20:30;102456.69;;;9.38;71.08
48614;BME280;34408;51.426;5.444;2023-02-03T02:26:31;102468.44;;;9.37;71.05
48614;BME280;34408;51.426;5.444;2023-02-03T02:29:17;102483.53;;;9.38;70.97
48614;BME280;34408;51.426;5.444;2023-02-03T02:32:01;102486.38;;;9.37;70.64
48614;BME280;34408;51.426;5.444;2023-02-03T02:34:42;102485.38;;;9.38;71.00
48614;BME280;34408;51.426;5.444;2023-02-03T02:37:18;102479.19;;;9.37;70.91
48614;BME280;34408;51.426;5.444;2023-02-03T02:39:48;102481.88;;;9.37;70.88
48614;BME280;34408;51.426;5.444;2023-02-03T02:42:25;102476.50;;;9.37;70.46
48614;BME280;34408;51.426;5.444;2023-02-03T02:45:03;102481.03;;;9.37;70.99
48614;BME280;34408;51.426;5.444;2023-02-03T02:47:34;102486.38;;;9.37;70.42
48614;BME280;34408;51.426;5.444;2023-02-03T02:50:05;102499.81;;;9.37;70.44
48614;BME280;34408;51.426;5.444;2023-02-03T02:52:40;102500.47;;;9.39;70.28
48614;BME280;34408;51.426;5.444;2023-02-03T02:55:12;102500.66;;;9.37;70.29
48614;BME280;34408;51.426;5.444;2023-02-03T02:57:42;102490.09;;;9.36;70.78
48614;BME280;34408;51.426;5.444;2023-02-03T03:00:11;102479.34;;;9.36;70.97
48614;BME280;34408;51.426;5.444;2023-02-03T03:02:40;102471.31;;;9.36;70.15
48614;BME280;34408;51.426;5.444;2023-02-03T03:05:09;102475.84;;;9.35;70.58
48614;BME280;34408;51.426;5.444;2023-02-03T03:07:42;102466.94;;;9.35;70.86
48614;BME280;34408;51.426;5.444;2023-02-03T03:10:14;102477.69;;;9.35;70.74
48614;BME280;34408;51.426;5.444;2023-02-03T03:12:46;102476.66;;;9.36;70.46
48614;BME280;34408;51.426;5.444;2023-02-03T03:15:19;102480.00;;;9.38;70.64
48614;BME280;34408;51.426;5.444;2023-02-03T03:17:53;102492.41;;;9.39;70.19
48614;BME280;34408;51.426;5.444;2023-02-03T03:20:25;102500.66;;;9.37;70.16
48614;BME280;34408;51.426;5.444;2023-02-03T03:22:57;102491.75;;;9.37;70.31
48614;BME280;34408;51.426;5.444;2023-02-03T03:25:29;102485.72;;;9.35;70.58
48614;BME280;34408;51.426;5.444;2023-02-03T03:28:02;102491.09;;;9.35;70.30
48614;BME280;34408;51.426;5.444;2023-02-03T03:30:34;102476.84;;;9.34;70.23
48614;BME280;34408;51.426;5.444;2023-02-03T03:33:05;102478.69;;;9.34;70.37
48614;BME280;34408;51.426;5.444;2023-02-03T03:35:37;102477.50;;;9.36;70.46
48614;BME280;34408;51.426;5.444;2023-02-03T03:38:10;102473.97;;;9.36;70.51
48614;BME280;34408;51.426;5.444;2023-02-03T03:40:43;102463.25;;;9.36;70.72
48614;BME280;34408;51.426;5.444;2023-02-03T03:43:15;102471.31;;;9.36;70.04
48614;BME280;34408;51.426;5.444;2023-02-03T03:45:48;102474.66;;;9.38;70.30
48614;BME280;34408;51.426;5.444;2023-02-03T03:48:23;102456.03;;;9.36;70.07
48614;BME280;34408;51.426;5.444;2023-02-03T03:50:57;102460.56;;;9.36;69.95
48614;BME280;34408;51.426;5.444;2023-02-03T03:53:27;102448.16;;;9.35;70.02
48614;BME280;34408;51.426;5.444;2023-02-03T03:55:58;102442.78;;;9.35;69.99
48614;BME280;34408;51.426;5.444;2023-02-03T03:58:29;102440.13;;;9.35;70.21
48614;BME280;34408;51.426;5.444;2023-02-03T04:01:00;102453.34;;;9.36;70.33
48614;BME280;34408;51.426;5.444;2023-02-03T04:03:32;102455.19;;;9.36;70.27
48614;BME280;34408;51.426;5.444;2023-02-03T04:06:04;102469.44;;;9.36;70.16
48614;BME280;34408;51.426;5.444;2023-02-03T04:08:32;102462.41;;;9.35;70.44
48614;BME280;34408;51.426;5.444;2023-02-03T04:11:00;102449.84;;;9.36;69.81
48614;BME280;34408;51.426;5.444;2023-02-03T04:13:28;102467.78;;;9.35;69.90
48614;BME280;34408;51.426;5.444;2023-02-03T04:15:55;102476.84;;;9.34;70.16
48614;BME280;34408;51.426;5.444;2023-02-03T04:18:23;102468.13;;;9.32;70.14
48614;BME280;34408;51.426;5.444;2023-02-03T04:20:52;102463.28;;;9.28;70.02
48614;BME280;34408;51.426;5.444;2023-02-03T04:23:20;102465.94;;;9.36;70.42
48614;BME280;34408;51.426;5.444;2023-02-03T04:25:48;102454.19;;;9.37;69.70
48614;BME280;34408;51.426;5.444;2023-02-03T04:28:16;102481.03;;;9.37;70.02
48614;BME280;34408;51.426;5.444;2023-02-03T04:30:43;102472.13;;;9.36;69.40
48614;BME280;34408;51.426;5.444;2023-02-03T04:33:11;102484.72;;;9.36;70.08
48614;BME280;34408;51.426;5.444;2023-02-03T04:35:39;102485.72;;;9.35;69.61
48614;BME280;34408;51.426;5.444;2023-02-03T04:38:08;102490.91;;;9.36;69.92
48614;BME280;34408;51.426;5.444;2023-02-03T04:40:36;102486.56;;;9.35;70.17
48614;BME280;34408;51.426;5.444;2023-02-03T04:43:07;102496.47;;;9.35;69.46
48614;BME280;34408;51.426;5.444;2023-02-03T04:45:35;102485.72;;;9.35;69.60
48614;BME280;34408;51.426;5.444;2023-02-03T04:48:03;102478.34;;;9.37;70.07
48614;BME280;34408;51.426;5.444;2023-02-03T04:50:31;102505.16;;;9.37;69.96
48614;BME280;34408;51.426;5.444;2023-02-03T04:52:58;102493.44;;;9.38;70.00
48614;BME280;34408;51.426;5.444;2023-02-03T04:55:28;102475.66;;;9.37;69.59
48614;BME280;34408;51.426;5.444;2023-02-03T04:57:56;102460.09;;;9.32;69.28
48614;BME280;34408;51.426;5.444;2023-02-03T05:00:24;102472.97;;;9.37;70.14
48614;BME280;34408;51.426;5.444;2023-02-03T05:02:53;102474.81;;;9.36;69.33
48614;BME280;34408;51.426;5.444;2023-02-03T05:05:21;102470.47;;;9.35;69.66
48614;BME280;34408;51.426;5.444;2023-02-03T05:07:48;102474.81;;;9.36;70.09
48614;BME280;34408;51.426;5.444;2023-02-03T05:10:16;102460.56;;;9.36;69.72
48614;BME280;34408;51.426;5.444;2023-02-03T05:12:45;102448.16;;;9.35;69.92
48614;BME280;34408;51.426;5.444;2023-02-03T05:15:13;102451.19;;;9.32;69.96
48614;BME280;34408;51.426;5.444;2023-02-03T05:17:41;102455.38;;;9.34;69.61
48614;BME280;34408;51.426;5.444;2023-02-03T05:20:10;102459.72;;;9.35;69.67
48614;BME280;34408;51.426;5.444;2023-02-03T05:22:38;102458.41;;;9.31;69.48
48614;BME280;34408;51.426;5.444;2023-02-03T05:25:07;102465.09;;;9.35;69.34
48614;BME280;34408;51.426;5.444;2023-02-03T05:27:36;102480.38;;;9.35;69.44
48614;BME280;34408;51.426;5.444;2023-02-03T05:30:07;102480.38;;;9.35;69.66
48614;BME280;34408;51.426;5.444;2023-02-03T05:32:35;102475.84;;;9.35;69.82
48614;BME280;34408;51.426;5.444;2023-02-03T05:35:03;102486.56;;;9.35;69.85
48614;BME280;34408;51.426;5.444;2023-02-03T05:37:31;102482.06;;;9.28;69.81
48614;BME280;34408;51.426;5.444;2023-02-03T05:39:59;102493.13;;;9.33;70.07
48614;BME280;34408;51.426;5.444;2023-02-03T05:42:45;102500.16;;;9.34;69.62
48614;BME280;34408;51.426;5.444;2023-02-03T05:45:15;102501.00;;;9.34;69.79
48614;BME280;34408;51.426;5.444;2023-02-03T05:47:42;102509.03;;;9.34;70.02
48614;BME280;34408;51.426;5.444;2023-02-03T05:50:10;102509.03;;;9.34;69.67
48614;BME280;34408;51.426;5.444;2023-02-03T05:52:38;102501.81;;;9.35;69.80
48614;BME280;34408;51.426;5.444;2023-02-03T05:55:06;102498.31;;;9.34;69.83
48614;BME280;34408;51.426;5.444;2023-02-03T05:57:34;102500.16;;;9.34;69.99
48614;BME280;34408;51.426;5.444;2023-02-03T06:00:02;102498.31;;;9.34;69.47
48614;BME280;34408;51.426;5.444;2023-02-03T06:02:31;102487.56;;;9.34;69.27
48614;BME280;34408;51.426;5.444;2023-02-03T06:04:59;102480.56;;;9.25;69.82
48614;BME280;34408;51.426;5.444;2023-02-03T06:07:27;102502.19;;;9.32;69.88
48614;BME280;34408;51.426;5.444;2023-02-03T06:09:55;102503.00;;;9.32;70.00
48614;BME280;34408;51.426;5.444;2023-02-03T06:12:22;102500.16;;;9.34;69.61
48614;BME280;34408;51.426;5.444;2023-02-03T06:14:53;102488.59;;;9.33;69.90
48614;BME280;34408;51.426;5.444;2023-02-03T06:17:21;102508.19;;;9.34;69.39
48614;BME280;34408;51.426;5.444;2023-02-03T06:19:50;102505.34;;;9.35;69.64
48614;BME280;34408;51.426;5.444;2023-02-03T06:22:18;102507.03;;;9.36;69.46
48614;BME280;34408;51.426;5.444;2023-02-03T06:24:46;102496.28;;;9.36;69.49
48614;BME280;34408;51.426;5.444;2023-02-03T06:27:14;102491.44;;;9.32;69.19
48614;BME280;34408;51.426;5.444;2023-02-03T06:29:42;102499.81;;;9.37;69.49
48614;BME280;34408;51.426;5.444;2023-02-03T06:32:10;102496.13;;;9.38;69.45
48614;BME280;34408;51.426;5.444;2023-02-03T06:34:37;102498.97;;;9.36;69.37
48614;BME280;34408;51.426;5.444;2023-02-03T06:37:06;102509.53;;;9.38;69.77
48614;BME280;34408;51.426;5.444;2023-02-03T06:39:34;102506.50;;;9.41;68.96
48614;BME280;34408;51.426;5.444;2023-02-03T06:42:02;102494.94;;;9.40;69.25
48614;BME280;34408;51.426;5.444;2023-02-03T06:44:30;102486.03;;;9.40;69.69
48614;BME280;34408;51.426;5.444;2023-02-03T06:46:58;102474.47;;;9.39;69.92
48614;BME280;34408;51.426;5.444;2023-02-03T06:49:27;102490.56;;;9.39;69.65
48614;BME280;34408;51.426;5.444;2023-02-03T06:51:55;102494.09;;;9.40;69.70
48614;BME280;34408;51.426;5.444;2023-02-03T06:54:24;102498.44;;;9.41;69.41
48614;BME280;34408;51.426;5.444;2023-02-03T06:56:52;102500.31;;;9.40;69.29
48614;BME280;34408;51.426;5.444;2023-02-03T06:59:20;102490.56;;;9.39;69.88
48614;BME280;34408;51.426;5.444;2023-02-03T07:01:47;102488.91;;;9.38;69.35
48614;BME280;34408;51.426;5.444;2023-02-03T07:04:15;102477.34;;;9.38;69.33
48614;BME280;34408;51.426;5.444;2023-02-03T07:06:43;102467.59;;;9.37;69.74
48614;BME280;34408;51.426;5.444;2023-02-03T07:09:11;102479.19;;;9.37;69.55
48614;BME280;34408;51.426;5.444;2023-02-03T07:11:40;102487.22;;;9.37;69.75
48614;BME280;34408;51.426;5.444;2023-02-03T07:14:08;102495.28;;;9.37;69.28
48614;BME280;34408;51.426;5.444;2023-02-03T07:16:36;102499.59;;;9.46;69.13
48614;BME280;34408;51.426;5.444;2023-02-03T07:19:04;102508.34;;;9.40;69.67
48614;BME280;34408;51.426;5.444;2023-02-03T07:21:32;102520.25;;;9.38;69.27
48614;BME280;34408;51.426;5.444;2023-02-03T07:24:00;102530.00;;;9.39;69.34
48614;BME280;34408;51.426;5.444;2023-02-03T07:26:28;102525.47;;;9.39;69.47
48614;BME280;34408;51.426;5.444;2023-02-03T07:28:58;102522.78;;;9.39;69.61
48614;BME280;34408;51.426;5.444;2023-02-03T07:31:26;102525.63;;;9.38;69.54
48614;BME280;34408;51.426;5.444;2023-02-03T07:33:54;102532.00;;;9.37;69.73
48614;BME280;34408;51.426;5.444;2023-02-03T07:36:23;102525.63;;;9.38;69.37
48614;BME280;34408;51.426;5.444;2023-02-03T07:38:51;102513.88;;;9.39;69.30
48614;BME280;34408;51.426;5.444;2023-02-03T07:41:18;102525.28;;;9.41;69.66
48614;BME280;34408;51.426;5.444;2023-02-03T07:43:46;102524.28;;;9.42;69.24
48614;BME280;34408;51.426;5.444;2023-02-03T07:46:15;102524.28;;;9.42;69.19
48614;BME280;34408;51.426;5.444;2023-02-03T07:48:43;102530.47;;;9.42;69.72
48614;BME280;34408;51.426;5.444;2023-02-03T07:51:11;102516.41;;;9.40;69.28
48614;BME280;34408;51.426;5.444;2023-02-03T07:53:39;102532.31;;;9.42;69.17
48614;BME280;34408;51.426;5.444;2023-02-03T07:56:07;102526.97;;;9.42;69.16
48614;BME280;34408;51.426;5.444;2023-02-03T07:58:34;102529.66;;;9.42;69.39
48614;BME280;34408;51.426;5.444;2023-02-03T08:01:09;102532.16;;;9.43;69.21
48614;BME280;34408;51.426;5.444;2023-02-03T08:03:38;102533.16;;;9.42;69.10
48614;BME280;34408;51.426;5.444;2023-02-03T08:06:06;102534.84;;;9.43;69.38
48614;BME280;34408;51.426;5.444;2023-02-03T08:08:34;102554.28;;;9.45;69.79
48614;BME280;34408;51.426;5.444;2023-02-03T08:11:02;102539.19;;;9.44;69.74
48614;BME280;34408;51.426;5.444;2023-02-03T08:13:30;102536.50;;;9.44;69.62
48614;BME280;34408;51.426;5.444;2023-02-03T08:15:58;102545.56;;;9.43;69.89
48614;BME280;34408;51.426;5.444;2023-02-03T08:18:26;102548.25;;;9.43;69.37
48614;BME280;34408;51.426;5.444;2023-02-03T08:20:59;102552.63;;;9.44;69.77
48614;BME280;34408;51.426;5.444;2023-02-03T08:23:29;102554.47;;;9.44;69.84
48614;BME280;34408;51.426;5.444;2023-02-03T08:25:56;102567.72;;;9.45;69.63
48614;BME280;34408;51.426;5.444;2023-02-03T08:28:24;102567.72;;;9.45;69.98
48614;BME280;34408;51.426;5.444;2023-02-03T08:30:52;102575.75;;;9.45;69.83
48614;BME280;34408;51.426;5.444;2023-02-03T08:33:21;102575.75;;;9.45;69.33
48614;BME280;34408;51.426;5.444;2023-02-03T08:35:49;102567.72;;;9.45;69.55
48614;BME280;34408;51.426;5.444;2023-02-03T08:38:19;102570.22;;;9.47;69.96
48614;BME280;34408;51.426;5.444;2023-02-03T08:40:47;102573.91;;;9.46;69.58
48614;BME280;34408;51.426;5.444;2023-02-03T08:43:15;102573.06;;;9.45;70.04
48614;BME280;34408;51.426;5.444;2023-02-03T08:45:42;102575.41;;;9.49;69.53
48614;BME280;34408;51.426;5.444;2023-02-03T08:48:10;102591.16;;;9.52;69.63
48614;BME280;34408;51.426;5.444;2023-02-03T08:50:40;102608.09;;;9.60;69.57
48614;BME280;34408;51.426;5.444;2023-02-03T08:53:08;102605.00;;;9.79;68.50
48614;BME280;34408;51.426;5.444;2023-02-03T08:55:39;102605.13;;;9.94;67.99
48614;BME280;34408;51.426;5.444;2023-02-03T08:58:06;102605.88;;;10.11;67.99
48614;BME280;34408;51.426;5.444;2023-02-03T09:00:34;102599.47;;;10.20;67.46
48614;BME280;34408;51.426;5.444;2023-02-03T09:03:02;102605.13;;;10.33;66.79
48614;BME280;34408;51.426;5.444;2023-02-03T09:05:30;102598.28;;;10.46;66.53
48614;BME280;34408;51.426;5.444;2023-02-03T09:07:58;102587.19;;;10.49;66.41
48614;BME280;34408;51.426;5.444;2023-02-03T09:10:26;102592.81;;;10.39;66.41
48614;BME280;34408;51.426;5.444;2023-02-03T09:12:56;102588.34;;;10.31;66.86
48614;BME280;34408;51.426;5.444;2023-02-03T09:15:24;102594.09;;;10.20;67.49
48614;BME280;34408;51.426;5.444;2023-02-03T09:17:52;102590.78;;;10.10;67.57
48614;BME280;34408;51.426;5.444;2023-02-03T09:20:22;102605.06;;;10.02;68.20
48614;BME280;34408;51.426;5.444;2023-02-03T09:22:52;102594.69;;;9.99;68.33
48614;BME280;34408;51.426;5.444;2023-02-03T09:25:20;102585.31;;;9.95;68.56
48614;BME280;34408;51.426;5.444;2023-02-03T09:27:48;102589.34;;;9.91;68.63
48614;BME280;34408;51.426;5.444;2023-02-03T09:30:17;102604.13;;;9.87;69.05
48614;BME280;34408;51.426;5.444;2023-02-03T09:32:45;102599.28;;;9.83;68.84
48614;BME280;34408;51.426;5.444;2023-02-03T09:35:19;102603.81;;;9.82;69.04
48614;BME280;34408;51.426;5.444;2023-02-03T09:37:47;102589.25;;;9.76;69.61
48614;BME280;34408;51.426;5.444;2023-02-03T09:40:20;102613.41;;;9.76;69.14
48614;BME280;34408;51.426;5.444;2023-02-03T09:43:20;102611.06;;;9.73;69.59
48614;BME280;34408;51.426;5.444;2023-02-03T09:46:01;102611.25;;;9.72;69.40
48614;BME280;34408;51.426;5.444;2023-02-03T09:48:35;102626.03;;;9.68;69.93
48614;BME280;34408;51.426;5.444;2023-02-03T09:51:06;102635.09;;;9.67;69.77
48614;BME280;34408;51.426;5.444;2023-02-03T09:53:44;102630.91;;;9.64;69.87
48614;BME280;34408;51.426;5.444;2023-02-03T09:56:22;102627.38;;;9.64;70.14
48614;BME280;34408;51.426;5.444;2023-02-03T09:58:53;102634.75;;;9.62;70.02
48614;BME280;34408;51.426;5.444;2023-02-03T10:01:23;102653.56;;;9.62;70.69
48614;BME280;34408;51.426;5.444;2023-02-03T10:03:57;102642.81;;;9.62;70.60
48614;BME280;34408;51.426;5.444;2023-02-03T10:06:32;102643.66;;;9.62;70.25
48614;BME280;34408;51.426;5.444;2023-02-03T10:09:18;102649.84;;;9.63;70.42
48614;BME280;34408;51.426;5.444;2023-02-03T10:12:00;102635.09;;;9.59;70.36
48614;BME280;34408;51.426;5.444;2023-02-03T10:14:46;102640.47;;;9.59;70.44
48614;BME280;34408;51.426;5.444;2023-02-03T10:17:25;102636.13;;;9.58;70.78
48614;BME280;34408;51.426;5.444;2023-02-03T10:20:01;102622.53;;;9.59;70.64
48614;BME280;34408;51.426;5.444;2023-02-03T10:22:33;102618.16;;;9.58;70.76
48614;BME280;34408;51.426;5.444;2023-02-03T10:25:06;102619.00;;;9.59;71.00
48614;BME280;34408;51.426;5.444;2023-02-03T10:27:40;102621.69;;;9.59;70.62
48614;BME280;34408;51.426;5.444;2023-02-03T10:30:17;102636.78;;;9.60;70.83
48614;BME280;34408;51.426;5.444;2023-02-03T10:32:48;102628.91;;;9.58;71.19
48614;BME280;34408;51.426;5.444;2023-02-03T10:35:20;102628.72;;;9.60;70.71
48614;BME280;34408;51.426;5.444;2023-02-03T10:37:49;102634.75;;;9.62;70.95
48614;BME280;34408;51.426;5.444;2023-02-03T10:40:22;102625.88;;;9.61;70.76
48614;BME280;34408;51.426;5.444;2023-02-03T10:42:51;102620.69;;;9.60;70.70
48614;BME280;34408;51.426;5.444;2023-02-03T10:45:37;102625.88;;;9.61;70.89
48614;BME280;34408;51.426;5.444;2023-02-03T10:48:12;102620.69;;;9.60;70.99
48614;BME280;34408;51.426;5.444;2023-02-03T10:50:45;102613.47;;;9.60;71.33
48614;BME280;34408;51.426;5.444;2023-02-03T10:53:23;102628.38;;;9.63;71.53
48614;BME280;34408;51.426;5.444;2023-02-03T10:56:00;102636.94;;;9.66;71.26
48614;BME280;34408;51.426;5.444;2023-02-03T10:58:29;102623.34;;;9.68;71.52
48614;BME280;34408;51.426;5.444;2023-02-03T11:01:05;102633.06;;;9.69;71.54
48614;BME280;34408;51.426;5.444;2023-02-03T11:03:34;102635.56;;;9.70;70.91
48614;BME280;34408;51.426;5.444;2023-02-03T11:06:04;102618.81;;;9.68;71.10
48614;BME280;34408;51.426;5.444;2023-02-03T11:08:33;102634.75;;;9.70;71.16
48614;BME280;34408;51.426;5.444;2023-02-03T11:11:03;102632.06;;;9.70;70.74
48614;BME280;34408;51.426;5.444;2023-02-03T11:13:31;102637.44;;;9.70;71.29
48614;BME280;34408;51.426;5.444;2023-02-03T11:16:01;102644.63;;;9.69;71.24
48614;BME280;34408;51.426;5.444;2023-02-03T11:18:52;102637.44;;;9.70;71.06
48614;BME280;34408;51.426;5.444;2023-02-03T11:21:22;102641.63;;;9.72;71.13
48614;BME280;34408;51.426;5.444;2023-02-03T11:23:56;102643.47;;;9.72;71.11
48614;BME280;34408;51.426;5.444;2023-02-03T11:26:29;102644.47;;;9.71;71.48
48614;BME280;34408;51.426;5.444;2023-02-03T11:28:59;102629.38;;;9.70;71.60
48614;BME280;34408;51.426;5.444;2023-02-03T11:31:29;102639.75;;;9.73;71.42
48614;BME280;34408;51.426;5.444;2023-02-03T11:34:02;102641.44;;;9.74;71.23
48614;BME280;34408;51.426;5.444;2023-02-03T11:36:33;102632.72;;;9.72;71.85
48614;BME280;34408;51.426;5.444;2023-02-03T11:39:16;102635.06;;;9.75;71.27
48614;BME280;34408;51.426;5.444;2023-02-03T11:41:45;102643.13;;;9.75;71.48
48614;BME280;34408;51.426;5.444;2023-02-03T11:44:18;102643.28;;;9.73;71.49
48614;BME280;34408;51.426;5.444;2023-02-03T11:46:49;102632.53;;;9.73;71.45
48614;BME280;34408;51.426;5.444;2023-02-03T11:52:57;102629.69;;;9.75;71.47
48614;BME280;34408;51.426;5.444;2023-02-03T11:55:39;102635.91;;;9.75;71.57
48614;BME280;34408;51.426;5.444;2023-02-03T11:58:19;102643.94;;;9.75;71.59
48614;BME280;34408;51.426;5.444;2023-02-03T12:01:00;102643.78;;;9.77;72.09
48614;BME280;34408;51.426;5.444;2023-02-03T12:06:56;102654.53;;;9.77;71.93
48614;BME280;34408;51.426;5.444;2023-02-03T12:09:37;102641.09;;;9.77;71.58
48614;BME280;34408;51.426;5.444;2023-02-03T12:15:15;102633.81;;;9.94;71.17
48614;BME280;34408;51.426;5.444;2023-02-03T12:17:57;102632.75;;;10.11;71.01
48614;BME280;34408;51.426;5.444;2023-02-03T12:20:40;102633.53;;;10.28;70.23
48614;BME280;34408;51.426;5.444;2023-02-03T12:23:33;102635.75;;;10.47;69.51
48614;BME280;34408;51.426;5.444;2023-02-03T12:26:14;102640.66;;;10.66;68.79
48614;BME280;34408;51.426;5.444;2023-02-03T12:28:54;102636.84;;;10.84;68.32
48614;BME280;34408;51.426;5.444;2023-02-03T12:31:28;102633.84;;;11.01;67.88
48614;BME280;34408;51.426;5.444;2023-02-03T12:34:03;102642.31;;;11.13;67.33
48614;BME280;34408;51.426;5.444;2023-02-03T12:36:37;102635.78;;;11.30;66.60
48614;BME280;34408;51.426;5.444;2023-02-03T12:39:13;102637.19;;;11.41;66.28
48614;BME280;34408;51.426;5.444;2023-02-03T12:41:49;102636.44;;;11.47;66.05
48614;BME280;34408;51.426;5.444;2023-02-03T12:44:22;102634.88;;;11.53;65.93
48614;BME280;34408;51.426;5.444;2023-02-03T12:46:55;102638.88;;;11.57;65.61
48614;BME280;34408;51.426;5.444;2023-02-03T12:49:34;102651.50;;;11.56;65.85
48614;BME280;34408;51.426;5.444;2023-02-03T12:52:13;102659.75;;;11.55;65.85
48614;BME280;34408;51.426;5.444;2023-02-03T12:54:50;102654.63;;;11.45;65.93
48614;BME280;34408;51.426;5.444;2023-02-03T12:57:24;102662.31;;;11.33;66.45
48614;BME280;34408;51.426;5.444;2023-02-03T13:00:15;102669.69;;;11.17;66.83
48614;BME280;34408;51.426;5.444;2023-02-03T13:02:54;102663.78;;;10.98;67.46
48614;BME280;34408;51.426;5.444;2023-02-03T13:05:31;102659.50;;;10.89;68.01
48614;BME280;34408;51.426;5.444;2023-02-03T13:08:05;102669.47;;;10.81;68.36
48614;BME280;34408;51.426;5.444;2023-02-03T13:10:42;102670.19;;;10.74;68.62
48614;BME280;34408;51.426;5.444;2023-02-03T13:13:22;102667.38;;;10.68;68.81
48614;BME280;34408;51.426;5.444;2023-02-03T13:15:52;102671.13;;;10.59;69.19
48614;BME280;34408;51.426;5.444;2023-02-03T13:18:25;102673.69;;;10.52;69.55
48614;BME280;34408;51.426;5.444;2023-02-03T13:20:55;102673.38;;;10.47;69.81
48614;BME280;34408;51.426;5.444;2023-02-03T13:23:23;102662.31;;;10.42;69.75
48614;BME280;34408;51.426;5.444;2023-02-03T13:26:08;102673.25;;;10.40;70.10
48614;BME280;34408;51.426;5.444;2023-02-03T13:28:52;102666.25;;;10.31;70.54
48614;BME280;34408;51.426;5.444;2023-02-03T13:31:34;102677.69;;;10.33;70.59
48614;BME280;34408;51.426;5.444;2023-02-03T13:34:28;102686.56;;;10.34;70.49
48614;BME280;34408;51.426;5.444;2023-02-03T13:37:46;102683.06;;;10.33;70.41